Time;durP1;ratioP1;P1;durP2;ratioP2;P2;SDS_P1;SDS_P2;PMS_P1;PMS_P2;Temp;Humidity;BMP_temperature;BMP_pressure;BME280_temperature;BME280_humidity;BME280_pressure;Samples;Min_cycle;Max_cycle;Signal;HPM_P1;HPM_P2
2022/11/03 00:01:51;;;;;;;12.35;6.80;;;;;;;8.68;100.00;99461.91;5034945;28;20041;-62
2022/11/03 00:04:19;;;;;;;11.18;7.38;;;;;;;8.51;100.00;99467.00;5036983;28;20083;-61
2022/11/03 00:06:47;;;;;;;14.73;8.18;;;;;;;8.34;100.00;99455.88;5037831;28;20037;-61
2022/11/03 00:09:14;;;;;;;13.45;7.85;;;;;;;8.32;100.00;99467.78;5039169;28;20124;-62
2022/11/03 00:11:41;;;;;;;13.63;7.38;;;;;;;8.19;100.00;99454.06;5021052;28;20036;-62
2022/11/03 00:14:08;;;;;;;12.95;6.60;;;;;;;8.14;100.00;99473.66;5037069;28;20116;-61
2022/11/03 00:16:35;;;;;;;10.15;6.70;;;;;;;8.06;100.00;99461.72;5038467;28;20044;-62
2022/11/03 00:19:01;;;;;;;11.40;6.10;;;;;;;7.99;100.00;99463.38;5038228;28;20037;-61
2022/11/03 00:21:27;;;;;;;10.90;6.28;;;;;;;7.96;100.00;99465.91;5037267;28;20484;-61
2022/11/03 00:23:53;;;;;;;10.80;7.00;;;;;;;7.81;100.00;99453.91;5034541;28;20135;-61
2022/11/03 00:26:26;;;;;;;13.23;6.60;;;;;;;7.93;100.00;99477.81;5035935;28;20048;-61
2022/11/03 00:28:59;;;;;;;9.70;6.35;;;;;;;7.74;100.00;99457.28;5037802;28;20468;-61
2022/11/03 00:31:33;;;;;;;12.10;7.63;;;;;;;7.84;100.00;99467.53;5037451;28;20040;-61
2022/11/03 00:33:59;;;;;;;10.93;5.97;;;;;;;7.95;100.00;99466.75;5038082;28;20048;-62
2022/11/03 00:36:33;;;;;;;11.30;6.35;;;;;;;7.93;100.00;99463.34;5034683;28;20476;-62
2022/11/03 00:38:59;;;;;;;10.43;6.15;;;;;;;7.91;100.00;99462.47;5014395;28;20566;-61
2022/11/03 00:41:26;;;;;;;13.15;7.32;;;;;;;7.89;100.00;99464.19;5038520;28;20459;-62
2022/11/03 00:43:52;;;;;;;12.38;8.80;;;;;;;7.83;100.00;99469.25;5034396;28;20317;-61
2022/11/03 00:46:20;;;;;;;15.48;8.02;;;;;;;7.82;100.00;99467.53;5004259;28;20187;-60
2022/11/03 00:48:46;;;;;;;10.32;6.75;;;;;;;7.78;100.00;99458.16;5035431;28;20040;-60
2022/11/03 00:51:24;;;;;;;9.35;5.82;;;;;;;7.73;100.00;99444.50;5039085;28;20051;-61
2022/11/03 00:53:52;;;;;;;9.17;6.23;;;;;;;7.77;100.00;99477.72;5020756;28;20036;-61
2022/11/03 00:56:21;;;;;;;9.97;5.83;;;;;;;7.58;100.00;99450.38;5038511;28;20037;-62
2022/11/03 00:58:49;;;;;;;9.27;5.53;;;;;;;7.57;100.00;99452.91;5037620;28;20132;-62
2022/11/03 01:01:17;;;;;;;9.13;5.40;;;;;;;7.64;100.00;99462.31;5020689;28;20037;-60
2022/11/03 01:06:48;;;;;;;7.13;5.50;;;;;;;7.64;100.00;99459.75;5032760;28;20047;-60
2022/11/03 01:06:51;;;;;;;5.70;4.37;;;;;;;7.65;100.00;99457.22;5016904;28;20974;-62
2022/11/03 01:09:21;;;;;;;11.27;5.40;;;;;;;7.71;100.00;99457.28;5037558;28;20114;-62
2022/11/03 01:12:00;;;;;;;8.93;5.57;;;;;;;7.76;100.00;99454.75;5010945;28;20080;-62
2022/11/03 01:14:46;;;;;;;7.30;5.13;;;;;;;7.65;100.00;99435.97;5035228;28;20052;-63
2022/11/03 01:17:21;;;;;;;9.10;5.07;;;;;;;7.65;100.00;99451.25;5037488;28;20449;-62
2022/11/03 01:19:47;;;;;;;7.22;4.15;;;;;;;7.57;100.00;99453.78;5036407;28;20041;-61
2022/11/03 01:22:14;;;;;;;6.47;4.33;;;;;;;7.51;100.00;99468.22;5030862;28;20729;-61
2022/11/03 01:24:40;;;;;;;10.50;5.73;;;;;;;7.41;100.00;99454.53;5036182;28;20137;-60
2022/11/03 01:27:12;;;;;;;12.70;5.93;;;;;;;7.40;100.00;99462.16;5038148;28;20040;-60
2022/11/03 01:29:37;;;;;;;7.40;5.10;;;;;;;7.35;100.00;99455.34;5038316;28;20744;-61
2022/11/03 01:32:03;;;;;;;10.07;5.60;;;;;;;7.31;100.00;99447.66;5039504;28;20037;-60
2022/11/03 01:34:29;;;;;;;9.13;5.80;;;;;;;7.30;100.00;99454.44;5039206;28;20099;-60
2022/11/03 01:36:55;;;;;;;10.30;6.70;;;;;;;7.19;100.00;99437.34;5037906;28;20040;-60
2022/11/03 01:39:21;;;;;;;8.23;4.10;;;;;;;7.20;100.00;99442.47;5037852;28;20033;-61
2022/11/03 01:41:50;;;;;;;8.00;4.93;;;;;;;7.18;100.00;99436.50;5040355;28;20048;-61
2022/11/03 01:44:15;;;;;;;6.17;4.80;;;;;;;7.17;100.00;99452.63;5041916;28;20538;-61
2022/11/03 01:46:53;;;;;;;7.30;5.90;;;;;;;7.04;100.00;99420.28;5042704;28;20481;-60
2022/11/03 01:49:24;;;;;;;11.07;5.00;;;;;;;7.18;100.00;99444.16;5042993;28;20041;-61
2022/11/03 01:51:57;;;;;;;8.33;4.83;;;;;;;7.23;100.00;99434.84;5042067;28;20539;-62
2022/11/03 01:54:25;;;;;;;9.27;6.13;;;;;;;7.30;100.00;99433.19;5040365;28;20039;-60
2022/11/03 01:56:51;;;;;;;8.30;5.40;;;;;;;7.31;100.00;99419.59;5042905;28;20041;-60
2022/11/03 01:59:21;;;;;;;7.27;5.27;;;;;;;7.26;100.00;99409.34;5043092;28;20155;-60
2022/11/03 02:01:47;;;;;;;9.23;5.10;;;;;;;7.30;100.00;99412.78;5038016;23;20055;-84
2022/11/03 02:04:19;;;;;;;9.27;4.80;;;;;;;7.32;100.00;99419.63;5038311;28;20640;-84
2022/11/03 02:06:49;;;;;;;11.00;6.40;;;;;;;7.39;100.00;99428.13;5076651;22;20362;-59
2022/11/03 02:09:15;;;;;;;13.70;8.73;;;;;;;7.32;100.00;99411.97;5026952;28;20047;-60
2022/11/03 02:14:25;;;;;;;15.43;7.27;;;;;;;7.47;100.00;99420.56;5029859;28;20041;-60
2022/11/03 02:16:55;;;;;;;7.53;5.87;;;;;;;7.54;100.00;99422.28;5030023;28;20505;-60
2022/11/03 02:19:35;;;;;;;12.93;7.27;;;;;;;7.60;100.00;99414.66;5031864;28;20044;-60
2022/11/03 02:22:22;;;;;;;8.97;6.27;;;;;;;7.64;100.00;99414.69;5029264;28;20041;-59
2022/11/03 02:24:51;;;;;;;10.27;6.83;;;;;;;7.59;100.00;99395.13;5029475;28;20041;-60
2022/11/03 02:27:19;;;;;;;39.85;37.58;;;;;;;7.68;100.00;99402.81;5030729;28;20539;-60
2022/11/03 02:29:45;;;;;;;14.37;13.10;;;;;;;7.72;100.00;99412.19;5029339;28;20040;-60
2022/11/03 02:32:27;;;;;;;9.07;7.53;;;;;;;7.79;100.00;99408.81;5030621;28;20461;-60
2022/11/03 02:35:21;;;;;;;17.40;14.27;;;;;;;7.71;100.00;99377.31;5026656;28;20116;-59
2022/11/03 02:37:51;;;;;;;10.40;8.93;;;;;;;7.87;100.00;99402.03;5013102;28;20080;-60
2022/11/03 02:40:26;;;;;;;14.63;13.43;;;;;;;7.99;100.00;99394.41;5030621;28;20650;-62
2022/11/03 02:42:53;;;;;;;5.18;4.68;;;;;;;8.07;100.00;99394.44;5032175;28;20398;-59
2022/11/03 02:45:21;;;;;;;18.00;16.23;;;;;;;8.09;100.00;99393.63;5014316;28;20036;-60
2022/11/03 02:47:48;;;;;;;15.97;14.63;;;;;;;8.11;100.00;99391.03;5030056;28;20117;-59
2022/11/03 02:50:14;;;;;;;9.47;8.57;;;;;;;8.11;100.00;99394.47;5030428;28;20041;-61
2022/11/03 02:52:46;;;;;;;11.60;9.17;;;;;;;8.16;100.00;99390.22;5028656;28;20396;-60
2022/11/03 02:55:21;;;;;;;16.00;14.57;;;;;;;8.23;100.00;99391.09;5028629;28;20033;-60
2022/11/03 02:58:04;;;;;;;10.13;9.17;;;;;;;8.20;100.00;99366.41;5029948;28;20045;-60
2022/11/03 03:00:35;;;;;;;20.42;19.10;;;;;;;8.15;100.00;99357.84;5031983;28;20044;-60
2022/11/03 03:03:09;;;;;;;11.65;7.82;;;;;;;8.30;100.00;99385.19;5031407;28;20037;-60
2022/11/03 03:05:41;;;;;;;12.80;7.50;;;;;;;8.30;100.00;99376.66;5029267;28;20082;-60
2022/11/03 03:08:10;;;;;;;15.15;10.02;;;;;;;8.34;100.00;99379.22;4988701;28;1215026;-60
2022/11/03 03:10:42;;;;;;;12.67;11.47;;;;;;;8.40;100.00;99380.97;5031196;28;20048;-59
2022/11/03 03:13:10;;;;;;;13.40;12.30;;;;;;;8.41;100.00;99370.72;5032187;28;20522;-59
2022/11/03 03:16:01;;;;;;;19.67;18.42;;;;;;;8.47;100.00;99365.63;5031513;28;20037;-61
2022/11/03 03:18:40;;;;;;;19.33;17.73;;;;;;;8.46;100.00;99363.06;5033702;28;20860;-63
2022/11/03 03:21:29;;;;;;;9.77;8.77;;;;;;;8.49;100.00;99363.06;5028772;28;20095;-61
2022/11/03 03:24:04;;;;;;;6.95;5.70;;;;;;;8.49;100.00;99357.94;5029571;28;20029;-60
2022/11/03 03:26:36;;;;;;;17.45;15.85;;;;;;;8.34;100.00;99345.16;5029295;28;20091;-60
2022/11/03 03:29:25;;;;;;;16.85;12.20;;;;;;;8.46;100.00;99370.72;5029965;28;20347;-60
2022/11/03 03:31:56;;;;;;;15.98;14.65;;;;;;;8.45;100.00;99367.31;5024260;28;20171;-61
2022/11/03 03:34:25;;;;;;;22.80;20.83;;;;;;;8.43;100.00;99374.16;5031479;28;20409;-60
2022/11/03 03:36:54;;;;;;;27.70;25.88;;;;;;;8.47;100.00;99367.34;5033261;28;20029;-61
2022/11/03 03:39:23;;;;;;;32.85;30.35;;;;;;;8.39;100.00;99343.47;5032086;28;20492;-61
2022/11/03 03:41:51;;;;;;;28.60;26.75;;;;;;;8.53;100.00;99359.69;4998720;28;20123;-62
2022/11/03 03:44:16;;;;;;;21.58;19.88;;;;;;;8.49;100.00;99342.63;5026468;28;20052;-61
2022/11/03 03:46:48;;;;;;;38.92;36.70;;;;;;;8.66;100.00;99359.66;5029860;28;20061;-61
2022/11/03 03:49:14;;;;;;;16.83;15.07;;;;;;;8.68;100.00;99357.13;5029020;28;20045;-59
2022/11/03 03:51:41;;;;;;;19.15;17.52;;;;;;;8.65;100.00;99364.78;5021248;28;20083;-59
2022/11/03 03:54:07;;;;;;;45.67;43.13;;;;;;;8.54;100.00;99341.78;5030269;28;20041;-60
2022/11/03 03:56:59;;;;;;;15.35;8.68;;;;;;;8.67;100.00;99347.75;5029906;28;20052;-60
2022/11/03 03:59:25;;;;;;;44.70;42.30;;;;;;;8.65;100.00;99341.78;5029561;28;20036;-59
2022/11/03 04:01:50;;;;;;;67.97;63.92;;;;;;;8.72;100.00;99351.16;5030461;28;20041;-60
2022/11/03 04:04:16;;;;;;;46.65;44.05;;;;;;;8.77;100.00;99349.47;5030067;28;20114;-60
2022/11/03 04:06:42;;;;;;;13.75;11.93;;;;;;;8.72;100.00;99351.16;5027661;28;20171;-61
2022/11/03 04:09:08;;;;;;;61.70;58.42;;;;;;;8.61;100.00;99323.03;5028038;28;20072;-60
2022/11/03 04:22:32;;;;;;;77.05;73.03;;;;;;;8.91;100.00;99318.78;5025819;28;20045;-60
2022/11/03 04:24:58;;;;;;;68.15;64.53;;;;;;;8.75;100.00;99294.06;5029333;28;20041;-60
2022/11/03 04:27:28;;;;;;;110.35;104.47;;;;;;;8.85;100.00;99309.41;5030050;28;20068;-60
2022/11/03 04:29:58;;;;;;;119.22;113.32;;;;;;;8.89;100.00;99307.69;5028523;28;20037;-61
2022/11/03 04:32:24;;;;;;;64.00;60.55;;;;;;;8.88;100.00;99311.09;5029751;28;20029;-58
2022/11/03 04:34:51;;;;;;;111.35;105.72;;;;;;;8.94;100.00;99301.72;5029100;28;20044;-61
2022/11/03 04:37:16;;;;;;;79.07;74.90;;;;;;;8.83;100.00;99275.28;5030147;28;20083;-59
2022/11/03 04:39:42;;;;;;;142.82;135.48;;;;;;;8.89;100.00;99288.06;5029035;28;20431;-59
2022/11/03 04:42:29;;;;;;;132.35;125.68;;;;;;;8.90;100.00;99292.34;5029675;28;20106;-61
2022/11/03 04:44:56;;;;;;;106.22;101.05;;;;;;;8.91;100.00;99293.19;5029507;28;20090;-61
2022/11/03 04:47:24;;;;;;;85.80;81.22;;;;;;;8.97;100.00;99294.03;5030291;28;20060;-61
2022/11/03 04:49:50;;;;;;;68.60;65.32;;;;;;;8.98;100.00;99288.06;5020790;28;20115;-60
2022/11/03 04:52:21;;;;;;;125.93;119.28;;;;;;;8.96;100.00;99261.63;5029711;28;20045;-60
2022/11/03 04:54:49;;;;;;;87.68;83.47;;;;;;;9.26;100.00;99252.16;5029706;28;20041;-61
2022/11/03 04:57:16;;;;;;;89.18;84.53;;;;;;;9.70;100.00;99272.44;5030503;28;20671;-61
2022/11/03 04:59:45;;;;;;;95.70;91.18;;;;;;;9.70;100.00;99254.53;5013568;28;20038;-62
2022/11/03 05:02:15;;;;;;;121.22;115.60;;;;;;;9.63;100.00;99254.53;5029859;28;20073;-61
2022/11/03 05:04:43;;;;;;;131.27;124.70;;;;;;;9.47;100.00;99245.25;5027618;28;20057;-59
2022/11/03 05:07:22;;;;;;;121.22;115.32;;;;;;;9.52;100.00;99261.44;5029029;28;20057;-60
2022/11/03 05:09:49;;;;;;;103.65;98.50;;;;;;;9.48;100.00;99259.75;5030004;28;20029;-60
2022/11/03 05:12:15;;;;;;;100.10;95.32;;;;;;;9.44;100.00;99255.50;5033548;28;20971;-60
2022/11/03 05:14:41;;;;;;;72.25;68.45;;;;;;;9.35;100.00;99262.34;4993425;28;20048;-61
2022/11/03 05:17:19;;;;;;;63.35;59.88;;;;;;;9.33;100.00;99269.22;5031650;28;20068;-60
2022/11/03 05:19:44;;;;;;;78.93;75.03;;;;;;;9.33;100.00;99264.09;5035765;28;20065;-60
2022/11/03 05:22:16;;;;;;;85.22;80.78;;;;;;;9.26;100.00;99226.56;5039851;28;20135;-65
2022/11/03 05:24:42;;;;;;;62.17;58.88;;;;;;;9.33;100.00;99236.81;5039090;28;20106;-60
2022/11/03 05:27:15;;;;;;;79.63;75.75;;;;;;;9.46;100.00;99247.84;5037392;28;20361;-61
2022/11/03 05:29:41;;;;;;;84.07;79.55;;;;;;;9.49;100.00;99252.94;5037002;28;20061;-60
2022/11/03 05:32:15;;;;;;;77.40;73.00;;;;;;;9.54;100.00;99253.75;5035402;28;20120;-60
2022/11/03 05:34:45;;;;;;;63.85;59.95;;;;;;;9.52;100.00;99253.75;5034953;28;20048;-62
2022/11/03 05:37:20;;;;;;;73.78;69.72;;;;;;;9.54;100.00;99252.06;5033256;28;20052;-59
2022/11/03 05:39:47;;;;;;;78.63;74.07;;;;;;;9.54;100.00;99253.75;5029760;28;20036;-60
2022/11/03 05:42:22;;;;;;;72.28;68.22;;;;;;;9.53;100.00;99249.50;5025346;28;20544;-61
2022/11/03 05:44:50;;;;;;;99.00;94.15;;;;;;;9.55;100.00;99252.88;5033853;28;20037;-60
2022/11/03 05:47:31;;;;;;;85.60;81.22;;;;;;;9.60;100.00;99252.00;5031382;28;20079;-60
2022/11/03 05:50:13;;;;;;;105.97;100.78;;;;;;;9.67;100.00;99254.53;5033014;28;20064;-61
2022/11/03 05:52:39;;;;;;;89.07;84.32;;;;;;;9.73;100.00;99249.38;5032574;28;20120;-61
2022/11/03 05:55:05;;;;;;;89.50;85.22;;;;;;;9.72;100.00;99245.97;5032372;28;20402;-60
2022/11/03 05:57:33;;;;;;;81.93;77.60;;;;;;;9.82;100.00;99257.00;5031824;28;20142;-60
2022/11/03 05:59:59;;;;;;;74.40;70.85;;;;;;;9.83;100.00;99241.66;5033541;28;20425;-60
2022/11/03 06:02:34;;;;;;;52.70;49.85;;;;;;;9.84;100.00;99247.63;5033216;28;20045;-61
2022/11/03 06:04:59;;;;;;;29.15;26.80;;;;;;;9.78;100.00;99234.84;5034179;28;20565;-61
2022/11/03 06:07:28;;;;;;;22.83;21.08;;;;;;;9.87;100.00;99248.44;5025588;28;20132;-61
2022/11/03 06:09:54;;;;;;;70.18;66.47;;;;;;;9.77;100.00;99222.88;5032349;28;20071;-60
2022/11/03 06:12:21;;;;;;;43.05;40.47;;;;;;;9.90;100.00;99247.56;5029964;28;20071;-56
2022/11/03 06:14:47;;;;;;;25.33;23.00;;;;;;;9.91;100.00;99252.69;5016638;28;20045;-55
2022/11/03 06:17:25;;;;;;;43.22;40.08;;;;;;;9.92;100.00;99235.63;5030132;28;20436;-55
2022/11/03 06:20:00;;;;;;;80.28;76.05;;;;;;;10.07;100.00;99256.84;5030723;28;20041;-60
2022/11/03 06:22:34;;;;;;;105.57;98.60;;;;;;;10.00;100.00;99237.25;5010933;28;20151;-60
2022/11/03 06:25:25;;;;;;;104.68;98.50;;;;;;;10.05;100.00;99250.03;5028769;28;20077;-60
2022/11/03 06:27:52;;;;;;;130.65;123.93;;;;;;;9.93;100.00;99238.13;5030781;28;20052;-60
2022/11/03 06:30:25;;;;;;;109.38;103.35;;;;;;;10.17;100.00;99254.25;5030853;28;20053;-60
2022/11/03 06:32:51;;;;;;;93.72;89.05;;;;;;;10.21;100.00;99255.94;5034719;28;20502;-61
2022/11/03 06:35:17;;;;;;;147.30;139.93;;;;;;;10.27;100.00;99258.47;5014805;28;20090;-60
2022/11/03 06:37:43;;;;;;;115.70;109.57;;;;;;;10.29;100.00;99259.28;5029196;28;21664;-60
2022/11/03 06:40:09;;;;;;;101.55;96.78;;;;;;;10.31;100.00;99262.69;5025252;28;20052;-60
2022/11/03 06:42:37;;;;;;;77.25;73.05;;;;;;;10.35;100.00;99261.81;5030611;28;20440;-61
2022/11/03 06:45:21;;;;;;;96.22;91.68;;;;;;;10.40;100.00;99265.16;5011951;28;20587;-60
2022/11/03 06:47:47;;;;;;;102.35;97.45;;;;;;;10.32;100.00;99236.19;5031103;28;20038;-61
2022/11/03 06:50:30;;;;;;;82.53;78.07;;;;;;;10.51;100.00;99253.13;5032059;28;20021;-60
2022/11/03 06:52:58;;;;;;;65.43;62.22;;;;;;;10.52;100.00;99244.56;5032775;28;20037;-60
2022/11/03 06:55:34;;;;;;;95.55;90.90;;;;;;;10.54;100.00;99227.44;5031997;28;20098;-60
2022/11/03 06:58:23;;;;;;;115.65;110.25;;;;;;;10.76;100.00;99236.63;5032323;28;20048;-60
2022/11/03 07:00:49;;;;;;;99.07;94.57;;;;;;;10.82;100.00;99231.44;5031133;28;20038;-60
2022/11/03 07:03:36;;;;;;;115.93;110.60;;;;;;;10.96;100.00;99233.84;5031716;28;20043;-60
2022/11/03 07:06:18;;;;;;;100.07;94.97;;;;;;;11.04;100.00;99226.91;5028147;28;20037;-59
2022/11/03 07:08:46;;;;;;;123.75;117.85;;;;;;;11.18;100.00;99225.06;5017153;28;20080;-60
2022/11/03 07:11:21;;;;;;;150.93;143.48;;;;;;;11.28;100.00;99218.09;5029536;28;20570;-59
2022/11/03 07:13:48;;;;;;;128.15;121.95;;;;;;;11.24;100.00;99196.75;5031531;28;20068;-60
2022/11/03 07:16:27;;;;;;;111.20;105.90;;;;;;;11.48;100.00;99220.41;5029077;28;20539;-59
2022/11/03 07:18:52;;;;;;;107.20;101.75;;;;;;;11.52;100.00;99202.38;5031896;28;20455;-59
2022/11/03 07:21:39;;;;;;;91.95;87.22;;;;;;;11.78;100.00;99226.00;5028910;28;20091;-59
2022/11/03 07:24:19;;;;;;;99.78;94.93;;;;;;;11.84;100.00;99214.78;5029870;28;20040;-59
2022/11/03 07:26:45;;;;;;;117.93;112.18;;;;;;;11.67;100.00;99193.63;5030665;28;20132;-61
2022/11/03 07:29:30;;;;;;;130.65;124.65;;;;;;;11.67;100.00;99196.19;5011227;28;20688;-60
2022/11/03 07:31:57;;;;;;;132.15;125.88;;;;;;;11.61;100.00;99201.38;5028533;28;20037;-59
2022/11/03 07:34:28;;;;;;;123.50;117.68;;;;;;;11.78;100.00;99208.03;5028972;28;20041;-60
2022/11/03 07:36:56;;;;;;;107.85;102.45;;;;;;;11.75;100.00;99191.81;5030124;28;20145;-59
2022/11/03 07:39:22;;;;;;;122.32;116.45;;;;;;;11.85;100.00;99189.06;5029023;28;20037;-59
2022/11/03 07:41:49;;;;;;;110.82;105.68;;;;;;;12.07;100.00;99206.72;5031512;28;20057;-59
2022/11/03 07:44:19;;;;;;;115.78;110.45;;;;;;;11.93;100.00;99203.50;5029635;28;20098;-59
2022/11/03 07:46:46;;;;;;;135.65;129.38;;;;;;;12.11;100.00;99196.38;5029480;28;20041;-59
2022/11/03 07:49:27;;;;;;;133.15;126.78;;;;;;;12.22;100.00;99188.50;5011530;28;20044;-59
2022/11/03 07:51:58;;;;;;;140.68;134.30;;;;;;;12.34;100.00;99185.72;5032751;28;20136;-59
2022/11/03 07:54:33;;;;;;;154.55;147.45;;;;;;;12.48;100.00;99176.00;5033558;28;20152;-58
2022/11/03 07:57:18;;;;;;;170.75;162.75;;;;;;;12.63;100.00;99172.34;5030752;28;20040;-58
2022/11/03 07:59:50;;;;;;;168.63;160.45;;;;;;;12.77;100.00;99162.63;5028326;28;20052;-59
2022/11/03 08:02:35;;;;;;;173.80;165.77;;;;;;;12.82;100.00;99156.50;5028743;28;20037;-59
2022/11/03 08:05:01;;;;;;;180.80;172.85;;;;;;;12.89;100.00;99149.53;5026392;28;20049;-59
2022/11/03 08:07:27;;;;;;;162.68;155.18;;;;;;;12.98;100.00;99135.63;5020697;28;20063;-59
2022/11/03 08:09:54;;;;;;;180.00;171.65;;;;;;;13.12;100.00;99143.94;5028876;28;20083;-59
2022/11/03 08:12:20;;;;;;;173.70;165.82;;;;;;;13.12;100.00;99149.06;5028288;28;20106;-59
2022/11/03 08:14:46;;;;;;;228.43;218.13;;;;;;;13.22;100.00;99138.56;5031052;28;20048;-59
2022/11/03 08:17:13;;;;;;;202.95;193.90;;;;;;;13.25;100.00;99124.75;5030635;28;20041;-59
2022/11/03 08:19:39;;;;;;;189.18;180.75;;;;;;;13.36;100.00;99137.41;5026890;28;20045;-58
2022/11/03 08:22:05;;;;;;;206.50;197.50;;;;;;;13.45;100.00;99114.84;5027786;28;20518;-59
2022/11/03 08:24:30;;;;;;;183.25;174.35;;;;;;;13.62;100.00;99119.66;5010632;28;20041;-59
2022/11/03 08:26:59;;;;;;;147.65;141.23;;;;;;;13.46;100.00;99100.25;5014241;28;20030;-59
2022/11/03 08:29:26;;;;;;;107.72;102.85;;;;;;;13.79;100.00;99116.66;5026175;28;20040;-59
2022/11/03 08:31:54;;;;;;;131.77;125.82;;;;;;;13.67;100.00;99086.88;5029202;28;20052;-58
2022/11/03 08:34:20;;;;;;;128.40;122.85;;;;;;;13.82;100.00;99106.28;5022937;28;20407;-58
2022/11/03 08:36:46;;;;;;;110.63;105.38;;;;;;;13.90;100.00;99100.06;5029413;28;20052;-59
2022/11/03 08:39:11;;;;;;;136.98;130.38;;;;;;;13.91;100.00;99082.84;5028425;28;20098;-58
2022/11/03 08:41:37;;;;;;;147.20;140.50;;;;;;;14.03;100.00;99085.97;5028232;28;20083;-59
2022/11/03 08:44:03;;;;;;;142.35;135.95;;;;;;;14.13;100.00;99084.81;5028776;28;20415;-58
2022/11/03 08:46:28;;;;;;;166.15;158.73;;;;;;;14.04;100.00;99066.19;5029073;28;20045;-58
2022/11/03 08:48:55;;;;;;;172.40;164.32;;;;;;;14.22;100.00;99059.69;5013103;28;20068;-58
2022/11/03 08:51:20;;;;;;;155.20;148.02;;;;;;;14.26;100.00;99041.50;5029706;28;20057;-59
2022/11/03 08:53:49;;;;;;;163.00;155.40;;;;;;;14.27;100.00;99043.22;5028874;28;20268;-58
2022/11/03 08:56:15;;;;;;;128.02;122.00;;;;;;;14.31;100.00;99039.66;5029450;28;20060;-58
2022/11/03 08:58:42;;;;;;;153.20;145.98;;;;;;;14.44;100.00;99047.94;5028191;28;20049;-60
2022/11/03 09:01:08;;;;;;;131.23;125.28;;;;;;;14.58;100.00;99041.50;5015737;28;20036;-58
2022/11/03 09:03:34;;;;;;;140.73;134.35;;;;;;;14.74;100.00;99034.16;5028087;28;20450;-58
2022/11/03 09:05:59;;;;;;;112.85;107.22;;;;;;;14.88;100.00;99024.28;5022566;28;20037;-58
2022/11/03 09:08:25;;;;;;;148.02;141.52;;;;;;;15.04;100.00;99033.25;5013908;28;20060;-58
2022/11/03 09:10:50;;;;;;;163.60;156.00;;;;;;;15.33;100.00;99037.50;5029000;28;20076;-58
2022/11/03 09:13:16;;;;;;;133.75;127.90;;;;;;;15.32;100.00;99028.06;5028924;28;20041;-58
2022/11/03 09:15:43;;;;;;;126.32;120.68;;;;;;;15.41;100.00;99030.34;5028495;28;20134;-58
2022/11/03 09:18:08;;;;;;;92.10;87.40;;;;;;;15.60;100.00;99032.38;5030471;28;20445;-58
2022/11/03 09:20:34;;;;;;;150.57;143.00;;;;;;;15.69;100.00;99024.31;4996469;28;20080;-58
2022/11/03 09:23:00;;;;;;;168.55;160.70;;;;;;;15.73;100.00;99013.00;5029101;28;20034;-57
2022/11/03 09:25:25;;;;;;;159.82;152.65;;;;;;;15.94;100.00;99010.53;5029867;28;20046;-58
2022/11/03 09:27:51;;;;;;;120.68;114.78;;;;;;;15.42;100.00;99016.53;5007174;28;20033;-59
2022/11/03 09:30:17;;;;;;;148.57;141.95;;;;;;;15.58;100.00;99004.00;5024625;28;20630;-58
2022/11/03 09:32:42;;;;;;;117.43;112.07;;;;;;;15.66;100.00;99002.00;5027578;28;20046;-59
2022/11/03 09:35:08;;;;;;;130.13;124.10;;;;;;;15.94;100.00;99007.09;5031598;28;20251;-59
2022/11/03 09:37:35;;;;;;;168.57;160.82;;;;;;;16.00;100.00;98996.50;5029840;28;20447;-59
2022/11/03 09:40:03;;;;;;;162.05;154.68;;;;;;;16.15;100.00;98984.78;5010504;28;20045;-59
2022/11/03 09:42:30;;;;;;;210.77;201.52;;;;;;;16.18;100.00;98987.25;5028521;28;20033;-59
2022/11/03 09:44:56;;;;;;;262.35;250.30;;;;;;;16.52;100.00;98994.63;5010165;28;20048;-59
2022/11/03 09:47:46;;;;;;;254.52;242.82;;;;;;;16.61;100.00;98986.56;5028034;28;20049;-59
2022/11/03 09:50:18;;;;;;;236.85;226.43;;;;;;;16.61;100.00;98960.69;5028293;28;20152;-59
2022/11/03 09:52:45;;;;;;;245.90;234.38;;;;;;;16.61;100.00;98971.03;5020042;28;20041;-59
2022/11/03 09:55:18;;;;;;;258.48;246.50;;;;;;;16.57;100.00;98951.31;5030555;28;20043;-59
2022/11/03 09:57:45;;;;;;;213.80;203.65;;;;;;;16.77;100.00;98959.19;5028617;28;20503;-59
2022/11/03 10:00:17;;;;;;;205.93;196.80;;;;;;;16.82;100.00;98952.94;4998355;28;20096;-61
2022/11/03 10:02:43;;;;;;;204.45;195.55;;;;;;;16.66;100.00;98948.41;5013633;28;20050;-61
2022/11/03 10:05:13;;;;;;;168.18;160.85;;;;;;;16.37;100.00;98927.03;5031817;28;20119;-60
2022/11/03 10:07:38;;;;;;;185.50;177.25;;;;;;;16.68;100.00;98931.06;5019666;28;20048;-61
2022/11/03 10:10:05;;;;;;;168.18;160.93;;;;;;;16.68;100.00;98933.63;5032523;28;20048;-62
2022/11/03 10:12:36;;;;;;;188.55;180.38;;;;;;;16.61;100.00;98919.25;5033204;28;20062;-59
2022/11/03 10:15:02;;;;;;;134.57;128.30;;;;;;;16.58;100.00;98922.81;5034681;28;20103;-60
2022/11/03 10:17:29;;;;;;;118.65;113.43;;;;;;;16.77;100.00;98899.63;5033230;28;20419;-59
2022/11/03 10:19:56;;;;;;;131.95;126.18;;;;;;;16.66;100.00;98897.47;5030977;28;20613;-59
2022/11/03 10:22:22;;;;;;;118.25;112.65;;;;;;;16.71;100.00;98890.38;5013269;28;20052;-59
2022/11/03 10:24:51;;;;;;;115.90;110.70;;;;;;;17.10;100.00;98911.22;5029688;28;20411;-59
2022/11/03 10:27:22;;;;;;;140.52;134.30;;;;;;;17.17;100.00;98896.28;5029276;28;20045;-62
2022/11/03 10:30:07;;;;;;;203.73;194.80;;;;;;;16.99;100.00;98894.44;5030859;28;20036;-61
2022/11/03 10:32:33;;;;;;;202.50;193.70;;;;;;;16.95;100.00;98891.13;5003053;28;20082;-59
2022/11/03 10:34:59;;;;;;;185.73;177.38;;;;;;;17.04;100.00;98879.56;5032110;28;20047;-59
2022/11/03 10:37:27;;;;;;;177.77;169.75;;;;;;;17.01;100.00;98872.75;5030477;28;20055;-60
2022/11/03 10:39:55;;;;;;;137.25;131.30;;;;;;;17.11;100.00;98884.41;5030745;28;20117;-61
2022/11/03 10:42:29;;;;;;;133.45;127.70;;;;;;;16.95;100.00;98885.09;5034642;28;20037;-59
2022/11/03 10:45:17;;;;;;;145.80;139.43;;;;;;;16.84;100.00;98889.00;5034680;28;20094;-61
2022/11/03 10:47:43;;;;;;;114.35;109.30;;;;;;;16.76;100.00;98872.88;5032661;28;20471;-61
2022/11/03 10:50:20;;;;;;;80.80;76.95;;;;;;;16.84;100.00;98870.00;5032258;28;20067;-60
2022/11/03 10:52:46;;;;;;;99.85;95.30;;;;;;;16.87;100.00;98869.88;5031056;28;20048;-63
2022/11/03 10:55:11;;;;;;;155.90;149.20;;;;;;;16.77;100.00;98861.63;5031418;28;20469;-63
2022/11/03 10:57:37;;;;;;;112.47;106.72;;;;;;;16.73;100.00;98854.88;5030925;28;20044;-62
2022/11/03 11:00:03;;;;;;;57.45;54.45;;;;;;;16.79;100.00;98849.47;5032397;28;20223;-61
2022/11/03 11:02:31;;;;;;;49.47;46.63;;;;;;;16.54;100.00;98835.81;5031221;28;20047;-61
2022/11/03 11:05:02;;;;;;;43.58;41.38;;;;;;;16.69;100.00;98827.44;5031039;28;20036;-61
2022/11/03 11:07:27;;;;;;;61.88;58.95;;;;;;;16.58;100.00;98841.72;5032004;28;20049;-61
2022/11/03 11:09:53;;;;;;;45.28;42.35;;;;;;;16.61;100.00;98837.25;5029755;28;20060;-61
2022/11/03 11:12:31;;;;;;;51.58;49.03;;;;;;;16.63;100.00;98825.13;5030793;28;20049;-61
2022/11/03 11:14:58;;;;;;;48.17;45.38;;;;;;;16.68;100.00;98811.97;5031667;28;20099;-61
2022/11/03 11:17:36;;;;;;;92.38;88.13;;;;;;;16.89;100.00;98805.91;5012697;28;20050;-61
2022/11/03 11:20:20;;;;;;;41.83;39.58;;;;;;;16.75;100.00;98810.81;5032026;28;20037;-61
2022/11/03 11:22:47;;;;;;;55.53;52.10;;;;;;;16.71;100.00;98798.91;5030141;28;20037;-63
2022/11/03 11:25:13;;;;;;;45.53;43.10;;;;;;;16.75;100.00;98803.91;5029577;28;20076;-61
2022/11/03 11:27:45;;;;;;;29.52;27.73;;;;;;;16.77;100.00;98801.22;5030455;28;20044;-62
2022/11/03 11:30:20;;;;;;;32.30;30.63;;;;;;;16.73;100.00;98773.78;5026949;28;20144;-62
2022/11/03 11:32:46;;;;;;;17.05;15.95;;;;;;;16.88;100.00;98786.09;5017178;28;20480;-61
2022/11/03 11:35:15;;;;;;;21.10;19.98;;;;;;;16.96;100.00;98775.41;5031563;28;20096;-63
2022/11/03 11:37:41;;;;;;;17.83;16.67;;;;;;;16.98;100.00;98756.31;5030808;28;20549;-60